Time;durP1;ratioP1;P1;durP2;ratioP2;P2;SDS_P1;SDS_P2;PMS_P1;PMS_P2;Temp;Humidity;BMP_temperature;BMP_pressure;BME280_temperature;BME280_humidity;BME280_pressure;Samples;Min_cycle;Max_cycle;Signal;HPM_P1;HPM_P2
2023/02/22 00:00:25;;;;;;;30.40;14.90;;;7.00;99.90;;;;;;5033606;28;20232;-64
2023/02/22 00:02:58;;;;;;;24.93;14.00;;;7.00;99.90;;;;;;5032756;28;20233;-64
2023/02/22 00:05:27;;;;;;;27.60;14.33;;;7.20;99.90;;;;;;5032536;28;20284;-65
2023/02/22 00:07:57;;;;;;;32.13;15.27;;;7.20;99.90;;;;;;5037914;28;20568;-65
2023/02/22 00:10:24;;;;;;;30.57;14.03;;;7.10;99.90;;;;;;5035596;28;20235;-63
2023/02/22 00:12:53;;;;;;;31.93;15.60;;;6.80;99.90;;;;;;5036276;28;20555;-63
2023/02/22 00:15:26;;;;;;;29.30;14.40;;;6.80;99.90;;;;;;5037780;28;20721;-63
2023/02/22 00:17:53;;;;;;;33.73;15.70;;;6.90;99.90;;;;;;5031925;28;20236;-63
2023/02/22 00:20:22;;;;;;;30.37;14.23;;;6.90;99.90;;;;;;5032255;28;20521;-65
2023/02/22 00:22:50;;;;;;;31.47;15.83;;;6.90;99.90;;;;;;5037461;28;20299;-63
2023/02/22 00:25:19;;;;;;;33.77;16.07;;;6.90;99.90;;;;;;5033893;28;20660;-64
2023/02/22 00:27:48;;;;;;;27.23;14.73;;;7.00;99.90;;;;;;5048018;28;20281;-63
2023/02/22 00:30:18;;;;;;;30.40;15.17;;;7.00;99.90;;;;;;5031171;28;20237;-63
2023/02/22 00:32:46;;;;;;;30.33;15.23;;;7.00;99.90;;;;;;5027998;28;20778;-63
2023/02/22 00:35:15;;;;;;;31.53;15.80;;;7.00;99.90;;;;;;5049482;28;20221;-63
2023/02/22 00:37:42;;;;;;;33.53;17.20;;;6.70;99.90;;;;;;5029351;28;20316;-63
2023/02/22 00:40:10;;;;;;;29.70;16.20;;;6.70;99.90;;;;;;5032039;28;20201;-63
2023/02/22 00:42:37;;;;;;;34.33;16.37;;;6.80;99.90;;;;;;5033851;28;20908;-63
2023/02/22 00:45:04;;;;;;;32.73;15.30;;;6.70;99.90;;;;;;5035385;28;20205;-64
2023/02/22 00:47:32;;;;;;;31.33;15.80;;;6.80;99.90;;;;;;5034961;28;20717;-64
2023/02/22 00:49:59;;;;;;;29.33;15.70;;;6.80;99.90;;;;;;5034851;28;20220;-63
2023/02/22 00:52:27;;;;;;;32.40;15.63;;;6.80;99.90;;;;;;5033493;28;20259;-63
2023/02/22 00:54:54;;;;;;;32.73;15.83;;;6.60;99.90;;;;;;5038328;28;20274;-63
2023/02/22 00:57:23;;;;;;;28.40;16.37;;;6.70;99.90;;;;;;4997151;28;1116416;-63
2023/02/22 00:59:50;;;;;;;28.77;15.53;;;6.50;99.90;;;;;;5032740;28;20280;-63
2023/02/22 01:02:17;;;;;;;29.67;15.73;;;6.40;99.90;;;;;;5036348;28;20200;-63
2023/02/22 01:04:43;;;;;;;32.27;15.43;;;6.30;99.90;;;;;;5036636;28;20625;-63
2023/02/22 01:07:10;;;;;;;28.50;14.87;;;6.40;99.90;;;;;;5032744;28;20204;-63
2023/02/22 01:09:38;;;;;;;29.63;14.50;;;6.50;99.90;;;;;;5030498;28;20200;-64
2023/02/22 01:12:06;;;;;;;31.97;15.83;;;6.60;99.90;;;;;;5028152;28;20224;-64
2023/02/22 01:14:33;;;;;;;26.93;14.17;;;6.50;99.90;;;;;;5025546;28;20658;-63
2023/02/22 01:17:00;;;;;;;27.07;14.27;;;6.50;99.90;;;;;;5033953;28;20226;-62
2023/02/22 01:19:27;;;;;;;27.70;15.20;;;6.60;99.90;;;;;;5033198;28;20324;-62
2023/02/22 01:21:53;;;;;;;29.20;14.67;;;6.70;99.90;;;;;;5033073;28;20219;-63
2023/02/22 01:24:20;;;;;;;30.20;13.67;;;6.80;99.90;;;;;;5035680;28;20203;-62
2023/02/22 01:26:51;;;;;;;28.60;14.90;;;6.30;99.90;;;;;;5035425;28;20299;-62
2023/02/22 01:29:20;;;;;;;28.40;15.30;;;6.50;99.90;;;;;;5032780;28;20200;-62
2023/02/22 01:31:53;;;;;;;31.97;15.97;;;6.50;99.90;;;;;;5032332;28;20260;-62
2023/02/22 01:34:21;;;;;;;29.77;15.17;;;6.60;99.90;;;;;;5036441;28;20201;-63
2023/02/22 01:36:49;;;;;;;30.83;15.83;;;6.70;99.90;;;;;;5033618;28;20665;-63
2023/02/22 01:39:16;;;;;;;28.03;14.73;;;6.80;99.90;;;;;;5036579;28;20224;-63
2023/02/22 01:41:46;;;;;;;27.27;13.53;;;6.80;99.90;;;;;;5034200;28;20561;-63
2023/02/22 01:44:35;;;;;;;31.17;16.13;;;6.70;99.90;;;;;;5038192;28;20204;-63
2023/02/22 01:47:03;;;;;;;30.20;15.63;;;6.50;99.90;;;;;;5037504;28;20201;-63
2023/02/22 01:49:42;;;;;;;31.37;16.33;;;6.50;99.90;;;;;;5034549;28;20666;-63
2023/02/22 01:52:14;;;;;;;29.83;15.90;;;6.50;99.90;;;;;;5036918;28;20210;-63
2023/02/22 01:54:48;;;;;;;29.07;14.67;;;6.30;99.90;;;;;;5042217;28;20198;-62
2023/02/22 01:57:21;;;;;;;33.37;16.00;;;6.00;99.90;;;;;;5035010;28;20807;-62
2023/02/22 01:59:52;;;;;;;27.23;14.57;;;5.90;99.90;;;;;;5036734;28;20201;-63
2023/02/22 02:02:20;;;;;;;31.20;16.03;;;5.90;99.90;;;;;;5034311;28;20786;-62
2023/02/22 02:04:48;;;;;;;28.33;15.50;;;5.80;99.90;;;;;;5035938;28;20227;-62
2023/02/22 02:07:19;;;;;;;33.37;16.37;;;5.90;99.90;;;;;;5034649;28;20673;-63
2023/02/22 02:09:55;;;;;;;33.00;16.33;;;6.10;99.90;;;;;;5029851;28;20585;-63
2023/02/22 02:12:22;;;;;;;32.33;17.27;;;6.20;99.90;;;;;;5033834;28;20200;-63
2023/02/22 02:14:49;;;;;;;34.33;16.97;;;6.30;99.90;;;;;;5034398;28;20223;-63
2023/02/22 02:17:20;;;;;;;32.70;16.73;;;6.30;99.90;;;;;;5028012;28;21035;-63
2023/02/22 02:20:15;;;;;;;35.60;16.30;;;6.30;99.90;;;;;;5034490;28;20292;-63
2023/02/22 02:23:09;;;;;;;35.10;17.03;;;6.40;99.90;;;;;;5032703;28;20197;-63
2023/02/22 02:26:14;;;;;;;32.80;16.00;;;6.30;99.90;;;;;;5035216;28;20234;-63
2023/02/22 02:28:47;;;;;;;35.00;17.63;;;6.20;99.90;;;;;;5034638;28;20211;-63
2023/02/22 02:31:25;;;;;;;37.27;17.10;;;6.10;99.90;;;;;;5032704;28;20794;-62
2023/02/22 02:34:28;;;;;;;33.97;16.80;;;6.20;99.90;;;;;;5033067;28;20716;-62
2023/02/22 02:37:08;;;;;;;31.67;15.77;;;6.30;99.90;;;;;;5027634;28;20224;-62
2023/02/22 02:40:12;;;;;;;34.33;17.30;;;6.20;99.90;;;;;;5029255;28;20224;-62
2023/02/22 02:42:52;;;;;;;36.83;17.40;;;6.20;99.90;;;;;;5027813;28;20208;-63
2023/02/22 02:45:43;;;;;;;32.10;17.03;;;6.10;99.90;;;;;;5032306;28;20367;-63
2023/02/22 02:48:12;;;;;;;33.17;16.80;;;6.00;99.90;;;;;;5032363;28;20209;-63
2023/02/22 02:50:45;;;;;;;33.23;15.57;;;5.80;99.90;;;;;;5031949;28;20571;-63
2023/02/22 02:53:16;;;;;;;39.47;17.57;;;5.90;99.90;;;;;;5032105;28;20299;-62
2023/02/22 02:55:43;;;;;;;32.97;16.07;;;6.00;99.90;;;;;;5028021;28;20209;-63
2023/02/22 02:58:19;;;;;;;33.43;15.60;;;6.00;99.90;;;;;;5029003;28;20211;-63
2023/02/22 03:00:51;;;;;;;39.30;17.30;;;6.20;99.90;;;;;;5029467;28;20286;-63
2023/02/22 03:03:46;;;;;;;37.33;18.40;;;6.20;99.90;;;;;;5030668;28;20250;-64
2023/02/22 03:06:37;;;;;;;37.27;18.10;;;5.90;99.90;;;;;;5031368;28;20708;-63
2023/02/22 03:09:14;;;;;;;37.60;18.00;;;5.80;99.90;;;;;;5029492;28;20212;-63
2023/02/22 03:12:00;;;;;;;38.47;17.13;;;6.00;99.90;;;;;;5034591;28;20611;-64
2023/02/22 03:14:41;;;;;;;44.57;15.13;;;5.80;99.90;;;;;;5035401;28;20562;-64
2023/02/22 03:17:25;;;;;;;34.80;16.77;;;5.70;99.90;;;;;;5038058;28;20200;-64
2023/02/22 03:20:05;;;;;;;36.93;17.10;;;5.90;99.90;;;;;;5034793;28;20687;-64
2023/02/22 03:22:59;;;;;;;39.13;16.93;;;6.00;99.90;;;;;;5038059;28;20221;-66
2023/02/22 03:25:42;;;;;;;43.50;15.63;;;6.00;99.90;;;;;;5034335;28;20302;-64
2023/02/22 03:28:11;;;;;;;32.60;16.17;;;5.70;99.90;;;;;;5032396;28;20206;-64
2023/02/22 03:30:50;;;;;;;43.70;16.93;;;5.80;99.90;;;;;;5035910;28;20256;-66
2023/02/22 03:33:32;;;;;;;45.07;16.17;;;5.90;99.90;;;;;;5036701;28;20346;-64
2023/02/22 03:36:13;;;;;;;40.40;15.90;;;5.90;99.90;;;;;;5045234;28;20234;-63
2023/02/22 03:38:42;;;;;;;36.67;16.77;;;5.80;99.90;;;;;;5037141;28;20327;-63
2023/02/22 03:41:13;;;;;;;40.73;17.43;;;5.90;99.90;;;;;;5035834;28;20294;-62
2023/02/22 03:43:47;;;;;;;40.13;16.87;;;5.90;99.90;;;;;;5038498;28;20207;-61
2023/02/22 03:46:15;;;;;;;47.60;16.53;;;6.00;99.90;;;;;;5034582;28;20463;-62
2023/02/22 03:48:47;;;;;;;45.20;16.60;;;5.90;99.90;;;;;;5035779;28;20228;-62
2023/02/22 03:51:15;;;;;;;46.97;16.33;;;5.90;99.90;;;;;;5035860;28;20616;-63
2023/02/22 03:53:46;;;;;;;45.60;16.40;;;5.90;99.90;;;;;;5034208;28;20579;-62
2023/02/22 03:56:21;;;;;;;44.20;17.40;;;5.90;99.90;;;;;;5020653;28;20495;-62
2023/02/22 03:58:49;;;;;;;32.63;13.60;;;5.80;99.90;;;;;;5035692;28;20265;-62
2023/02/22 04:01:16;;;;;;;36.00;16.20;;;5.90;99.90;;;;;;5034844;28;20203;-61
2023/02/22 04:03:43;;;;;;;45.50;14.73;;;6.00;99.90;;;;;;5038720;28;20362;-62
2023/02/22 04:06:10;;;;;;;41.70;16.13;;;5.90;99.90;;;;;;5032493;28;20310;-62
2023/02/22 04:08:37;;;;;;;52.13;18.43;;;6.10;99.90;;;;;;5037604;28;20674;-62
2023/02/22 04:11:04;;;;;;;41.67;15.27;;;6.10;99.90;;;;;;5030449;28;20565;-62
2023/02/22 04:13:31;;;;;;;49.27;17.87;;;6.00;99.90;;;;;;5033347;28;20509;-62
2023/02/22 04:15:58;;;;;;;41.27;16.73;;;6.10;99.90;;;;;;5036125;28;20202;-62
2023/02/22 04:18:24;;;;;;;39.77;14.53;;;6.10;99.90;;;;;;5029823;28;20220;-61
2023/02/22 04:20:51;;;;;;;33.20;16.40;;;6.20;99.90;;;;;;5038191;28;20206;-61
2023/02/22 04:23:18;;;;;;;39.63;14.87;;;6.20;99.90;;;;;;5035490;28;20216;-61
2023/02/22 04:25:44;;;;;;;36.53;16.17;;;6.10;99.90;;;;;;5033016;28;20196;-61
2023/02/22 04:28:11;;;;;;;39.43;15.67;;;6.10;99.90;;;;;;5031492;28;20754;-61
2023/02/22 04:30:38;;;;;;;35.13;15.90;;;6.10;99.90;;;;;;5040040;28;20898;-61
2023/02/22 04:33:05;;;;;;;45.07;16.03;;;6.10;99.90;;;;;;5030642;28;20259;-63
2023/02/22 04:35:32;;;;;;;37.33;15.93;;;6.00;99.90;;;;;;5037463;28;20208;-61
2023/02/22 04:38:03;;;;;;;47.40;16.37;;;6.00;99.90;;;;;;5038192;28;20215;-61
2023/02/22 04:40:30;;;;;;;53.43;15.80;;;5.90;99.90;;;;;;5038681;28;20203;-61
2023/02/22 04:42:59;;;;;;;37.30;16.40;;;5.80;99.90;;;;;;5036400;28;20638;-61
2023/02/22 04:45:26;;;;;;;39.73;16.67;;;5.90;99.90;;;;;;5037954;28;20211;-61
2023/02/22 04:47:53;;;;;;;40.83;17.50;;;5.90;99.90;;;;;;5037573;28;20204;-61
2023/02/22 04:50:19;;;;;;;44.83;15.53;;;5.90;99.90;;;;;;5039032;28;20204;-60
2023/02/22 04:52:46;;;;;;;42.03;16.33;;;5.80;99.90;;;;;;5035469;28;20200;-61
2023/02/22 04:55:13;;;;;;;43.63;19.10;;;5.90;99.90;;;;;;5033712;28;20273;-61
2023/02/22 04:57:40;;;;;;;45.70;16.17;;;5.80;99.90;;;;;;5034374;28;20240;-62
2023/02/22 05:00:09;;;;;;;41.10;18.37;;;5.80;99.90;;;;;;5038913;28;20231;-62
2023/02/22 05:02:39;;;;;;;46.03;18.40;;;5.90;99.90;;;;;;5034275;28;20214;-60
2023/02/22 05:05:06;;;;;;;47.73;17.17;;;5.80;99.90;;;;;;5034616;28;20590;-61
2023/02/22 05:07:33;;;;;;;44.77;17.70;;;5.90;99.90;;;;;;5037899;28;20206;-61
2023/02/22 05:10:01;;;;;;;53.23;18.17;;;5.80;99.90;;;;;;5035915;28;20207;-61
2023/02/22 05:12:28;;;;;;;41.03;16.60;;;5.80;99.90;;;;;;5033982;28;20573;-61
2023/02/22 05:14:55;;;;;;;59.23;16.80;;;5.80;99.90;;;;;;5038144;28;20670;-61
2023/02/22 05:17:22;;;;;;;42.23;16.20;;;5.80;99.90;;;;;;5037975;28;20203;-61
2023/02/22 05:19:49;;;;;;;39.57;16.63;;;5.80;99.90;;;;;;5035271;28;20259;-61
2023/02/22 05:22:16;;;;;;;38.07;16.00;;;5.80;99.90;;;;;;5038158;28;20204;-61
2023/02/22 05:24:43;;;;;;;33.13;15.03;;;5.80;99.90;;;;;;5037718;28;20271;-62
2023/02/22 05:27:10;;;;;;;33.63;14.53;;;5.70;99.90;;;;;;5034995;28;20197;-61
2023/02/22 05:29:37;;;;;;;29.90;14.40;;;5.60;99.90;;;;;;5031648;28;20572;-62
2023/02/22 05:32:05;;;;;;;28.03;13.07;;;5.70;99.90;;;;;;5034374;28;20225;-62
2023/02/22 05:34:32;;;;;;;28.67;13.53;;;5.70;99.90;;;;;;5035524;28;20237;-61
2023/02/22 05:36:59;;;;;;;36.93;13.73;;;5.80;99.90;;;;;;5033587;28;20749;-61
2023/02/22 05:39:26;;;;;;;29.47;14.00;;;5.70;99.90;;;;;;5030850;28;20218;-61
2023/02/22 05:41:52;;;;;;;32.70;14.50;;;5.80;99.90;;;;;;5033138;28;20507;-61
2023/02/22 05:44:19;;;;;;;28.83;13.40;;;5.90;99.90;;;;;;5034244;28;20278;-61
2023/02/22 05:46:46;;;;;;;27.77;13.93;;;6.00;99.90;;;;;;5041175;28;20604;-61
2023/02/22 05:49:13;;;;;;;27.20;13.13;;;5.90;99.90;;;;;;5033851;28;20203;-61
2023/02/22 05:51:40;;;;;;;31.30;13.43;;;5.90;99.90;;;;;;5036943;28;20295;-61
2023/02/22 05:54:07;;;;;;;32.67;12.43;;;5.90;99.90;;;;;;5034404;28;20709;-62
2023/02/22 05:56:35;;;;;;;31.10;13.77;;;5.80;99.90;;;;;;5031720;28;20321;-62
2023/02/22 05:59:02;;;;;;;28.17;13.30;;;5.80;99.90;;;;;;5030028;28;20217;-61
2023/02/22 06:01:29;;;;;;;28.80;13.63;;;5.80;99.90;;;;;;5027623;28;20291;-62
2023/02/22 06:03:55;;;;;;;30.57;13.23;;;5.70;99.90;;;;;;5026714;28;20210;-62
2023/02/22 06:06:22;;;;;;;30.77;12.37;;;5.70;99.90;;;;;;5026513;28;20219;-62
2023/02/22 06:08:49;;;;;;;32.47;13.80;;;5.60;99.90;;;;;;5025467;28;20210;-61
2023/02/22 06:11:18;;;;;;;29.03;13.13;;;5.60;99.90;;;;;;5026534;28;20199;-61
2023/02/22 06:13:50;;;;;;;27.13;13.73;;;5.60;99.90;;;;;;5026595;28;20286;-61
2023/02/22 06:16:18;;;;;;;26.63;13.87;;;5.70;99.90;;;;;;5026174;28;20205;-61
2023/02/22 06:18:44;;;;;;;25.90;14.57;;;5.70;99.90;;;;;;5025549;28;20711;-61
2023/02/22 06:21:11;;;;;;;29.97;15.13;;;5.70;99.90;;;;;;5028376;28;20220;-61
2023/02/22 06:23:38;;;;;;;35.30;13.60;;;5.70;99.90;;;;;;5029237;28;20217;-63
2023/02/22 06:26:05;;;;;;;29.20;13.40;;;5.70;99.90;;;;;;5029810;28;20345;-61
2023/02/22 06:28:32;;;;;;;30.70;13.50;;;5.70;99.90;;;;;;5026160;28;20215;-62
2023/02/22 06:30:59;;;;;;;30.33;14.13;;;5.70;99.90;;;;;;5026651;28;20341;-61
2023/02/22 06:33:25;;;;;;;28.13;13.57;;;5.60;99.90;;;;;;5031371;28;20204;-61
2023/02/22 06:35:52;;;;;;;31.50;14.27;;;5.60;99.90;;;;;;5026200;28;20222;-61
2023/02/22 06:38:23;;;;;;;31.80;14.73;;;5.70;99.90;;;;;;5028644;28;20204;-61
2023/02/22 06:40:50;;;;;;;26.90;13.87;;;5.60;99.90;;;;;;5029659;28;20650;-62
2023/02/22 06:43:17;;;;;;;29.83;14.20;;;5.70;99.90;;;;;;5027505;28;20214;-61
2023/02/22 06:45:44;;;;;;;26.70;14.40;;;5.80;99.90;;;;;;5028736;28;20206;-61
2023/02/22 06:48:12;;;;;;;32.67;15.20;;;5.80;99.90;;;;;;5025827;28;20203;-62
2023/02/22 06:50:38;;;;;;;34.23;15.47;;;5.70;99.90;;;;;;5029685;28;20228;-62
2023/02/22 06:53:05;;;;;;;32.80;15.33;;;5.70;99.90;;;;;;5030100;28;20218;-61
2023/02/22 06:55:33;;;;;;;32.70;13.90;;;5.70;99.90;;;;;;5025969;28;20824;-61
2023/02/22 06:58:02;;;;;;;33.03;15.43;;;5.70;99.90;;;;;;5027177;28;20688;-62
2023/02/22 07:00:31;;;;;;;27.03;15.40;;;5.70;99.90;;;;;;5021224;28;20598;-61
2023/02/22 07:02:58;;;;;;;34.93;16.13;;;5.70;99.90;;;;;;5025771;28;20221;-61
2023/02/22 07:05:26;;;;;;;32.27;14.90;;;5.80;99.90;;;;;;5034612;28;20789;-62
2023/02/22 07:08:00;;;;;;;35.83;15.83;;;5.80;99.90;;;;;;5026589;28;20199;-62
2023/02/22 07:10:29;;;;;;;30.90;14.30;;;5.90;99.90;;;;;;5032398;28;20244;-60
2023/02/22 07:12:56;;;;;;;30.03;14.37;;;5.90;99.90;;;;;;5023055;28;20413;-62
2023/02/22 07:15:25;;;;;;;32.27;15.27;;;5.90;99.90;;;;;;5035806;28;20559;-61
2023/02/22 07:17:52;;;;;;;36.30;15.87;;;5.80;99.90;;;;;;5026559;28;20208;-62
2023/02/22 07:20:20;;;;;;;29.43;15.20;;;5.90;99.90;;;;;;5027209;28;20213;-61
2023/02/22 07:22:48;;;;;;;33.27;14.67;;;5.90;99.90;;;;;;5028720;28;20280;-61
2023/02/22 07:25:15;;;;;;;30.30;15.70;;;5.90;99.90;;;;;;5026892;28;20199;-61
2023/02/22 07:27:42;;;;;;;29.27;15.47;;;5.90;99.90;;;;;;5029921;28;20625;-62
2023/02/22 07:30:31;;;;;;;32.13;15.83;;;5.90;99.90;;;;;;5029798;28;20658;-61
2023/02/22 07:33:00;;;;;;;32.60;15.30;;;6.00;99.90;;;;;;5029673;28;20293;-61
2023/02/22 07:35:32;;;;;;;36.40;16.67;;;6.00;99.90;;;;;;5032802;28;20195;-63
2023/02/22 07:37:59;;;;;;;39.40;17.33;;;6.10;99.90;;;;;;5026503;28;20242;-61
2023/02/22 07:40:26;;;;;;;36.23;16.67;;;6.20;99.90;;;;;;5027372;28;22532;-62
2023/02/22 07:43:02;;;;;;;38.63;16.20;;;6.10;99.90;;;;;;5027341;28;20681;-63
2023/02/22 07:45:33;;;;;;;39.83;16.80;;;6.10;99.90;;;;;;5028318;28;20231;-61
2023/02/22 07:48:03;;;;;;;40.30;17.10;;;6.20;99.90;;;;;;5030040;28;20229;-61
2023/02/22 07:50:31;;;;;;;38.60;17.27;;;6.30;99.90;;;;;;5032170;28;20590;-62
2023/02/22 07:53:03;;;;;;;34.53;16.43;;;6.30;99.90;;;;;;5029196;28;20253;-61
2023/02/22 07:55:31;;;;;;;37.40;17.33;;;6.40;99.90;;;;;;5034175;28;20211;-61
2023/02/22 07:58:02;;;;;;;36.20;16.77;;;6.10;99.90;;;;;;5027531;28;20332;-61
2023/02/22 08:00:35;;;;;;;37.53;17.57;;;6.20;99.90;;;;;;5031821;28;20591;-61
2023/02/22 08:03:04;;;;;;;38.63;17.30;;;6.30;99.90;;;;;;5031565;28;20325;-62
2023/02/22 08:05:32;;;;;;;39.03;16.67;;;6.40;99.90;;;;;;5035080;28;20288;-63
2023/02/22 08:07:59;;;;;;;38.13;17.00;;;6.40;99.90;;;;;;5030140;28;20594;-61
2023/02/22 08:10:27;;;;;;;33.80;16.27;;;6.30;99.90;;;;;;5031287;28;20230;-62
2023/02/22 08:12:54;;;;;;;44.80;18.03;;;6.30;99.90;;;;;;5029720;28;20239;-62
2023/02/22 08:15:23;;;;;;;41.40;17.80;;;6.30;99.90;;;;;;5032736;28;20201;-61
2023/02/22 08:17:50;;;;;;;42.27;17.57;;;6.30;99.90;;;;;;5030967;28;20207;-62
2023/02/22 08:20:18;;;;;;;39.90;17.93;;;6.40;99.90;;;;;;5028793;28;20314;-61
2023/02/22 08:22:45;;;;;;;41.60;16.77;;;6.50;99.90;;;;;;5023100;28;20291;-62
2023/02/22 08:25:14;;;;;;;37.27;16.97;;;6.40;99.90;;;;;;5026508;28;20740;-63
2023/02/22 08:27:42;;;;;;;40.07;17.63;;;6.30;99.90;;;;;;5021231;28;20253;-63
2023/02/22 08:30:21;;;;;;;39.10;17.57;;;6.30;99.90;;;;;;5030121;28;20247;-61
2023/02/22 08:32:49;;;;;;;34.10;15.83;;;6.40;99.90;;;;;;5023749;28;20301;-62
2023/02/22 08:35:18;;;;;;;36.23;16.90;;;6.50;99.90;;;;;;5031868;28;20200;-62
2023/02/22 08:37:47;;;;;;;32.10;15.50;;;6.50;99.90;;;;;;5020686;28;20219;-61
2023/02/22 08:40:16;;;;;;;34.07;16.57;;;6.70;99.90;;;;;;5029944;28;20291;-61
2023/02/22 08:42:43;;;;;;;33.13;16.23;;;6.70;99.90;;;;;;5034555;28;20556;-62
2023/02/22 08:45:12;;;;;;;39.17;17.17;;;6.80;99.90;;;;;;5027131;28;20236;-64
2023/02/22 08:47:39;;;;;;;40.13;17.63;;;6.80;99.90;;;;;;5026846;28;20527;-63
2023/02/22 08:50:07;;;;;;;40.90;18.77;;;6.80;99.90;;;;;;5034984;28;20257;-62
2023/02/22 08:52:34;;;;;;;36.57;18.03;;;6.90;99.90;;;;;;5035392;28;20597;-61
2023/02/22 08:55:01;;;;;;;38.17;17.40;;;6.90;99.90;;;;;;5033952;28;20343;-62
2023/02/22 08:57:28;;;;;;;35.93;17.90;;;6.80;99.90;;;;;;5019316;28;20730;-61
2023/02/22 08:59:55;;;;;;;36.70;19.30;;;6.80;99.90;;;;;;5028708;28;20296;-62
2023/02/22 09:02:22;;;;;;;39.40;17.57;;;6.80;99.90;;;;;;5030539;28;20703;-62
2023/02/22 09:04:49;;;;;;;37.03;18.10;;;6.90;99.90;;;;;;5028005;28;20831;-62
2023/02/22 09:07:16;;;;;;;39.53;18.50;;;6.90;99.90;;;;;;5024949;28;20254;-60
2023/02/22 09:09:44;;;;;;;34.47;16.93;;;7.00;99.90;;;;;;5025884;28;20205;-61
2023/02/22 09:12:11;;;;;;;34.70;17.20;;;7.10;99.90;;;;;;5019728;28;20212;-61
2023/02/22 09:14:38;;;;;;;37.23;17.80;;;7.10;99.90;;;;;;5020565;28;20721;-64
2023/02/22 09:17:05;;;;;;;37.73;17.93;;;7.00;99.90;;;;;;5022689;28;20664;-62
2023/02/22 09:19:32;;;;;;;34.67;17.10;;;7.00;99.90;;;;;;5022706;28;20251;-63
2023/02/22 09:21:59;;;;;;;34.47;16.67;;;7.20;99.90;;;;;;5028244;28;20303;-62
2023/02/22 09:24:27;;;;;;;29.23;15.33;;;7.30;99.90;;;;;;5026753;28;20229;-62
2023/02/22 09:26:54;;;;;;;34.27;16.43;;;7.40;99.90;;;;;;5033690;28;20683;-62
2023/02/22 09:29:26;;;;;;;31.03;16.70;;;7.60;99.90;;;;;;5024271;28;20283;-62
2023/02/22 09:31:54;;;;;;;33.60;17.13;;;7.60;99.90;;;;;;5025232;28;22032;-62
2023/02/22 09:34:28;;;;;;;37.43;16.57;;;7.60;99.90;;;;;;5016781;28;20666;-61
2023/02/22 09:36:57;;;;;;;33.83;16.67;;;7.70;99.90;;;;;;5025455;28;20235;-62
2023/02/22 09:39:24;;;;;;;33.37;16.70;;;7.90;99.90;;;;;;5023814;28;20331;-62
2023/02/22 09:42:13;;;;;;;31.87;15.93;;;8.20;99.90;;;;;;5026688;28;20250;-62
2023/02/22 09:45:11;;;;;;;26.40;14.63;;;8.40;99.90;;;;;;5028383;28;20219;-64
2023/02/22 09:47:45;;;;;;;26.87;14.17;;;8.50;99.90;;;;;;5032488;28;20698;-62
2023/02/22 09:50:41;;;;;;;29.83;15.90;;;8.60;99.90;;;;;;5028393;28;20238;-62
2023/02/22 09:53:26;;;;;;;27.30;14.43;;;8.60;99.90;;;;;;5026560;28;20212;-62
2023/02/22 09:56:03;;;;;;;29.30;16.67;;;8.60;99.90;;;;;;5020209;28;20603;-62
2023/02/22 09:58:35;;;;;;;28.93;15.00;;;8.60;99.90;;;;;;5027610;28;20296;-62
2023/02/22 10:01:21;;;;;;;27.47;14.90;;;8.80;99.90;;;;;;5027879;28;20227;-62
2023/02/22 10:04:12;;;;;;;30.40;15.47;;;8.90;99.90;;;;;;5023673;28;20307;-64
2023/02/22 10:06:51;;;;;;;29.27;14.93;;;9.10;99.90;;;;;;5029597;28;20229;-63
2023/02/22 10:09:19;;;;;;;24.40;14.63;;;9.20;99.90;;;;;;5025762;28;20680;-62
2023/02/22 10:11:59;;;;;;;24.70;13.93;;;9.40;99.90;;;;;;5026918;28;20201;-64
2023/02/22 10:14:58;;;;;;;27.80;12.83;;;9.30;99.90;;;;;;5025365;28;20878;-65
2023/02/22 10:18:02;;;;;;;23.43;14.47;;;9.40;99.90;;;;;;5026911;28;20652;-62
2023/02/22 10:20:45;;;;;;;21.20;12.30;;;9.40;99.90;;;;;;5020504;28;20224;-62
2023/02/22 10:23:44;;;;;;;22.77;12.53;;;9.50;99.90;;;;;;5022525;28;20321;-62
2023/02/22 10:26:11;;;;;;;21.33;12.67;;;9.50;99.90;;;;;;5009673;28;20588;-63
2023/02/22 10:28:43;;;;;;;19.80;12.47;;;9.50;99.90;;;;;;5020886;28;20200;-61
2023/02/22 10:31:22;;;;;;;22.57;12.63;;;9.40;99.90;;;;;;5027672;28;20766;-61
2023/02/22 10:34:04;;;;;;;21.53;11.67;;;9.40;99.90;;;;;;5027732;28;20208;-62
2023/02/22 10:36:33;;;;;;;19.53;11.80;;;9.50;99.90;;;;;;5027958;28;20278;-62
2023/02/22 10:39:19;;;;;;;21.67;11.83;;;9.60;99.90;;;;;;5027332;28;20207;-62
2023/02/22 10:41:52;;;;;;;20.70;10.83;;;9.50;99.90;;;;;;5024191;28;20200;-61
2023/02/22 10:44:19;;;;;;;19.63;11.13;;;9.40;99.90;;;;;;5028715;28;20209;-61
2023/02/22 10:46:47;;;;;;;17.50;11.23;;;9.30;99.90;;;;;;5024066;28;20225;-62
2023/02/22 10:49:21;;;;;;;19.97;11.40;;;9.50;99.90;;;;;;5025010;28;20200;-62
2023/02/22 10:52:00;;;;;;;19.23;11.53;;;9.30;99.90;;;;;;5032545;28;20292;-65
2023/02/22 10:54:35;;;;;;;17.30;11.07;;;9.30;99.90;;;;;;5022435;28;20201;-61
2023/02/22 10:57:02;;;;;;;16.27;10.33;;;9.20;99.90;;;;;;5025987;28;20237;-61
2023/02/22 10:59:38;;;;;;;19.20;11.63;;;9.20;99.90;;;;;;5027933;28;20204;-64
2023/02/22 11:02:23;;;;;;;17.97;11.07;;;9.20;99.90;;;;;;5031039;28;20233;-64
2023/02/22 11:04:53;;;;;;;16.60;11.13;;;9.30;99.90;;;;;;5030925;28;20253;-61
2023/02/22 11:07:27;;;;;;;19.87;11.17;;;9.30;99.90;;;;;;5030935;28;20201;-61
2023/02/22 11:10:29;;;;;;;20.83;10.97;;;9.50;99.90;;;;;;5034121;28;20271;-60
2023/02/22 11:12:56;;;;;;;18.33;10.53;;;9.60;99.90;;;;;;5024581;28;20205;-60
2023/02/22 11:15:28;;;;;;;18.87;10.80;;;9.60;99.90;;;;;;5030901;28;20269;-62
2023/02/22 11:18:00;;;;;;;16.47;10.40;;;9.70;99.90;;;;;;5022687;28;20289;-62
2023/02/22 11:20:37;;;;;;;17.23;10.80;;;9.80;99.90;;;;;;5032500;28;20216;-60
2023/02/22 11:23:06;;;;;;;17.90;11.43;;;9.80;99.90;;;;;;5031018;28;20203;-62
2023/02/22 11:25:37;;;;;;;15.43;10.97;;;10.00;99.90;;;;;;5032924;28;20236;-61
2023/02/22 11:28:13;;;;;;;15.93;10.33;;;10.00;99.90;;;;;;5031339;28;20687;-61
2023/02/22 11:30:43;;;;;;;21.87;11.90;;;10.00;99.90;;;;;;5032688;28;20201;-61
2023/02/22 11:33:16;;;;;;;13.97;9.97;;;10.10;99.90;;;;;;5028446;28;20208;-61
2023/02/22 11:35:54;;;;;;;16.87;10.23;;;10.10;99.90;;;;;;5031899;28;20201;-61
2023/02/22 11:38:24;;;;;;;14.53;10.17;;;10.00;99.90;;;;;;5026662;28;20226;-60
2023/02/22 11:41:17;;;;;;;16.33;10.07;;;10.00;99.90;;;;;;5029750;28;20288;-60
2023/02/22 11:43:46;;;;;;;14.50;9.80;;;9.90;99.90;;;;;;5029443;28;20211;-61
2023/02/22 11:46:20;;;;;;;14.90;9.53;;;9.90;99.90;;;;;;5032775;28;20680;-60
2023/02/22 11:49:00;;;;;;;15.83;10.27;;;9.80;99.90;;;;;;5031911;28;20288;-61
2023/02/22 11:51:51;;;;;;;15.23;9.83;;;9.80;99.90;;;;;;5030233;28;21076;-61
2023/02/22 11:54:24;;;;;;;12.97;9.23;;;9.90;99.90;;;;;;5029799;28;20389;-61
2023/02/22 11:56:57;;;;;;;14.43;9.40;;;9.90;99.90;;;;;;5028822;28;20674;-61
2023/02/22 11:59:54;;;;;;;14.23;9.77;;;9.80;99.90;;;;;;5030005;28;20584;-61
2023/02/22 12:02:21;;;;;;;14.57;9.70;;;9.90;99.90;;;;;;5026849;28;20220;-60
2023/02/22 12:05:25;;;;;;;16.80;10.10;;;9.90;99.90;;;;;;5030990;28;20259;-61
2023/02/22 12:08:19;;;;;;;14.83;9.27;;;9.90;99.90;;;;;;5022640;28;20254;-62
2023/02/22 12:11:17;;;;;;;14.53;10.17;;;9.70;99.90;;;;;;5036763;28;20229;-62
2023/02/22 12:14:19;;;;;;;15.23;10.20;;;9.70;99.90;;;;;;5029471;28;20198;-62
2023/02/22 12:17:12;;;;;;;14.80;9.83;;;9.80;99.90;;;;;;5028983;28;20206;-62
2023/02/22 12:19:44;;;;;;;15.83;9.77;;;9.80;99.90;;;;;;5028631;28;20787;-61
2023/02/22 12:22:34;;;;;;;16.30;10.07;;;10.00;99.90;;;;;;5027418;28;20196;-62
2023/02/22 12:25:05;;;;;;;18.60;10.63;;;10.10;99.90;;;;;;5028082;28;22357;-60
2023/02/22 12:27:39;;;;;;;15.53;10.43;;;10.20;99.90;;;;;;5031197;28;20298;-61
2023/02/22 12:30:17;;;;;;;17.33;10.03;;;10.20;99.90;;;;;;5026728;28;20212;-61
2023/02/22 12:32:51;;;;;;;13.90;9.83;;;10.20;99.90;;;;;;5023337;28;20548;-61
2023/02/22 12:35:33;;;;;;;14.63;10.70;;;10.20;99.90;;;;;;5026355;28;20207;-60
2023/02/22 12:38:36;;;;;;;12.77;9.23;;;10.10;99.90;;;;;;5021930;28;20211;-60
2023/02/22 12:41:12;;;;;;;15.33;10.57;;;10.20;99.90;;;;;;5027457;28;20242;-60
2023/02/22 12:44:01;;;;;;;13.63;10.23;;;10.20;99.90;;;;;;5028217;28;20232;-61
2023/02/22 12:46:40;;;;;;;16.17;10.43;;;10.00;99.90;;;;;;5030285;28;20303;-60
2023/02/22 12:49:16;;;;;;;16.37;10.53;;;10.00;99.90;;;;;;5027891;28;20547;-61
2023/02/22 12:52:01;;;;;;;16.07;10.97;;;10.00;99.90;;;;;;5028241;28;21669;-61
2023/02/22 12:55:15;;;;;;;16.30;10.73;;;9.90;99.90;;;;;;5025333;28;20209;-62
2023/02/22 12:58:23;;;;;;;16.63;11.70;;;9.90;99.90;;;;;;5021234;28;20254;-61
2023/02/22 13:01:10;;;;;;;17.90;11.30;;;10.00;99.90;;;;;;5015577;28;20232;-62
2023/02/22 13:03:38;;;;;;;15.83;10.73;;;10.10;99.90;;;;;;5014172;28;20209;-61